THY6MB LTFM-LTFE
Flight info
| Callsign | THY6MB |
|---|---|
| Flight time | 0h 48m |
| Altitude | 38000 |
| Route | RATVU1G/17R RATVU UT35 NUMTI DCT KULAR/N0484F370 UT44 LAVTA UW87 KAVAK |
| Aircraft | A359/H-SDE2E3GHIJ3J4J5LM1ORWXY/LB1D1 |
Departure
| Time | 2026-05-09 13:28 |
|---|---|
| Airport | İstanbul Airport (LTFM) |
Arrival
| Time | 2026-05-09 14:17 |
|---|---|
| Airport | Milas Bodrum International Airport (LTFE) |
| Time | Latitude | Longitude | Altitude | Speed | Heading |
|---|---|---|---|---|---|
| 2026-05-09 12:35 | 41.26789 | 28.73615 | 336 ft | 0 kts | 179° |
| 2026-05-09 13:10 | 41.26802 | 28.73614 | 335 ft | 4 kts | 178° |
| 2026-05-09 13:10 | 41.26825 | 28.73613 | 335 ft | 3 kts | 178° |
| 2026-05-09 13:10 | 41.26850 | 28.73617 | 335 ft | 4 kts | 208° |
| 2026-05-09 13:11 | 41.26868 | 28.73639 | 335 ft | 4 kts | 249° |
| 2026-05-09 13:11 | 41.26873 | 28.73674 | 335 ft | 3 kts | 269° |
| 2026-05-09 13:11 | 41.26874 | 28.73696 | 336 ft | 0 kts | 269° |
| 2026-05-09 13:16 | 41.26873 | 28.73637 | 335 ft | 7 kts | 269° |
| 2026-05-09 13:16 | 41.26872 | 28.73551 | 336 ft | 11 kts | 269° |
| 2026-05-09 13:16 | 41.26870 | 28.73434 | 336 ft | 14 kts | 269° |
| 2026-05-09 13:16 | 41.26868 | 28.73293 | 337 ft | 16 kts | 269° |
| 2026-05-09 13:17 | 41.26867 | 28.73148 | 337 ft | 17 kts | 269° |
| 2026-05-09 13:17 | 41.26881 | 28.73007 | 335 ft | 14 kts | 315° |
| 2026-05-09 13:17 | 41.26976 | 28.72987 | 339 ft | 15 kts | 358° |
| 2026-05-09 13:17 | 41.27094 | 28.72984 | 339 ft | 19 kts | 359° |
| 2026-05-09 13:18 | 41.27224 | 28.72980 | 338 ft | 18 kts | 359° |
| 2026-05-09 13:18 | 41.27344 | 28.72978 | 340 ft | 17 kts | 359° |
| 2026-05-09 13:18 | 41.27473 | 28.72975 | 336 ft | 20 kts | 359° |
| 2026-05-09 13:18 | 41.27588 | 28.72973 | 338 ft | 17 kts | 359° |
| 2026-05-09 13:19 | 41.27704 | 28.72970 | 338 ft | 17 kts | 359° |
| 2026-05-09 13:19 | 41.27835 | 28.72967 | 336 ft | 17 kts | 359° |
| 2026-05-09 13:19 | 41.27949 | 28.72964 | 335 ft | 18 kts | 359° |
| 2026-05-09 13:19 | 41.28084 | 28.72961 | 339 ft | 17 kts | 359° |
| 2026-05-09 13:20 | 41.28216 | 28.72958 | 337 ft | 21 kts | 359° |
| 2026-05-09 13:20 | 41.28355 | 28.72954 | 337 ft | 19 kts | 359° |
| 2026-05-09 13:20 | 41.28475 | 28.72951 | 336 ft | 14 kts | 359° |
| 2026-05-09 13:20 | 41.28584 | 28.72949 | 336 ft | 16 kts | 359° |
| 2026-05-09 13:21 | 41.28711 | 28.72946 | 340 ft | 20 kts | 359° |
| 2026-05-09 13:21 | 41.28825 | 28.72943 | 338 ft | 18 kts | 359° |
| 2026-05-09 13:21 | 41.28948 | 28.72940 | 339 ft | 19 kts | 359° |
| 2026-05-09 13:21 | 41.29065 | 28.72937 | 339 ft | 14 kts | 359° |
| 2026-05-09 13:22 | 41.29174 | 28.72936 | 336 ft | 18 kts | 359° |
| 2026-05-09 13:22 | 41.29303 | 28.72932 | 336 ft | 16 kts | 359° |
| 2026-05-09 13:22 | 41.29422 | 28.72929 | 335 ft | 17 kts | 359° |
| 2026-05-09 13:23 | 41.29865 | 28.72905 | 335 ft | 9 kts | 325° |
| 2026-05-09 13:23 | 41.29875 | 28.72872 | 336 ft | 0 kts | 279° |
| 2026-05-09 13:26 | 41.29877 | 28.72861 | 335 ft | 3 kts | 279° |
| 2026-05-09 13:26 | 41.29879 | 28.72807 | 337 ft | 9 kts | 271° |
| 2026-05-09 13:26 | 41.29879 | 28.72709 | 337 ft | 13 kts | 269° |
| 2026-05-09 13:26 | 41.29878 | 28.72593 | 337 ft | 12 kts | 269° |
| 2026-05-09 13:27 | 41.29866 | 28.72472 | 335 ft | 14 kts | 239° |
| 2026-05-09 13:27 | 41.29780 | 28.72443 | 336 ft | 12 kts | 178° |
| 2026-05-09 13:27 | 41.29771 | 28.72443 | 338 ft | 0 kts | 179° |
| 2026-05-09 13:27 | 41.29770 | 28.72443 | 338 ft | 3 kts | 179° |
| 2026-05-09 13:28 | 41.29514 | 28.72449 | 336 ft | 76 kts | 179° |
| 2026-05-09 13:28 | 41.28750 | 28.72468 | 336 ft | 142 kts | 179° |
| 2026-05-09 13:28 | 41.27640 | 28.72489 | 777 ft | 161 kts | 183° |
| 2026-05-09 13:28 | 41.26500 | 28.72472 | 1514 ft | 169 kts | 185° |
| 2026-05-09 13:29 | 41.25284 | 28.72457 | 2080 ft | 185 kts | 183° |
| 2026-05-09 13:29 | 41.23882 | 28.72534 | 2403 ft | 219 kts | 180° |
| 2026-05-09 13:29 | 41.22266 | 28.72648 | 2899 ft | 242 kts | 180° |
| 2026-05-09 13:29 | 41.20558 | 28.72763 | 3699 ft | 249 kts | 181° |
| 2026-05-09 13:30 | 41.18824 | 28.72724 | 4613 ft | 249 kts | 193° |
| 2026-05-09 13:30 | 41.17258 | 28.71850 | 5623 ft | 246 kts | 215° |
| 2026-05-09 13:30 | 41.15625 | 28.71069 | 6514 ft | 259 kts | 188° |
| 2026-05-09 13:30 | 41.13815 | 28.71433 | 7429 ft | 271 kts | 164° |
| 2026-05-09 13:31 | 41.12061 | 28.72425 | 8368 ft | 278 kts | 160° |
| 2026-05-09 13:31 | 41.10285 | 28.73494 | 9306 ft | 282 kts | 160° |
| 2026-05-09 13:31 | 41.08468 | 28.74552 | 10220 ft | 289 kts | 161° |
| 2026-05-09 13:31 | 41.06553 | 28.75633 | 10731 ft | 310 kts | 161° |
| 2026-05-09 13:32 | 41.04483 | 28.76779 | 11136 ft | 333 kts | 161° |
| 2026-05-09 13:32 | 40.99999 | 28.79241 | 12342 ft | 359 kts | 161° |
| 2026-05-09 13:32 | 40.97679 | 28.80512 | 13196 ft | 363 kts | 161° |
| 2026-05-09 13:33 | 40.95322 | 28.81799 | 14001 ft | 369 kts | 161° |
| 2026-05-09 13:33 | 40.92938 | 28.83100 | 14752 ft | 374 kts | 161° |
| 2026-05-09 13:33 | 40.90520 | 28.84416 | 15522 ft | 378 kts | 161° |
| 2026-05-09 13:33 | 40.88065 | 28.85750 | 16290 ft | 382 kts | 161° |
| 2026-05-09 13:34 | 40.85590 | 28.87094 | 17025 ft | 387 kts | 161° |
| 2026-05-09 13:34 | 40.83086 | 28.88453 | 17763 ft | 391 kts | 161° |
| 2026-05-09 13:34 | 40.80553 | 28.89826 | 18444 ft | 397 kts | 161° |
| 2026-05-09 13:34 | 40.77973 | 28.91222 | 19044 ft | 402 kts | 161° |
| 2026-05-09 13:35 | 40.75365 | 28.92633 | 19708 ft | 407 kts | 161° |
| 2026-05-09 13:35 | 40.72734 | 28.94056 | 20396 ft | 411 kts | 161° |
| 2026-05-09 13:35 | 40.70072 | 28.95495 | 21090 ft | 416 kts | 161° |
| 2026-05-09 13:35 | 40.67386 | 28.96944 | 21794 ft | 419 kts | 160° |
| 2026-05-09 13:36 | 40.64674 | 28.98407 | 22488 ft | 423 kts | 160° |
| 2026-05-09 13:36 | 40.61972 | 28.99863 | 23154 ft | 428 kts | 160° |
| 2026-05-09 13:36 | 40.59204 | 29.01352 | 23769 ft | 433 kts | 160° |
| 2026-05-09 13:36 | 40.56395 | 29.02862 | 24261 ft | 439 kts | 160° |
| 2026-05-09 13:37 | 40.53552 | 29.04389 | 24846 ft | 443 kts | 160° |
| 2026-05-09 13:37 | 40.50692 | 29.05925 | 25429 ft | 446 kts | 160° |
| 2026-05-09 13:37 | 40.47811 | 29.07471 | 26014 ft | 449 kts | 160° |
| 2026-05-09 13:37 | 40.44909 | 29.09026 | 26582 ft | 452 kts | 160° |
| 2026-05-09 13:38 | 40.41985 | 29.10592 | 27162 ft | 456 kts | 160° |
| 2026-05-09 13:38 | 40.39039 | 29.12167 | 27724 ft | 459 kts | 160° |
| 2026-05-09 13:38 | 40.36068 | 29.13755 | 28281 ft | 463 kts | 160° |
| 2026-05-09 13:38 | 40.33076 | 29.15352 | 28766 ft | 467 kts | 160° |
| 2026-05-09 13:39 | 40.30040 | 29.16970 | 29304 ft | 471 kts | 160° |
| 2026-05-09 13:39 | 40.26993 | 29.18594 | 29837 ft | 474 kts | 160° |
| 2026-05-09 13:39 | 40.23928 | 29.20224 | 30314 ft | 477 kts | 160° |
| 2026-05-09 13:39 | 40.20848 | 29.21863 | 30760 ft | 480 kts | 160° |
| 2026-05-09 13:40 | 40.17736 | 29.23513 | 31177 ft | 484 kts | 160° |
| 2026-05-09 13:40 | 40.14612 | 29.25171 | 31720 ft | 485 kts | 160° |
| 2026-05-09 13:40 | 40.11484 | 29.26831 | 32109 ft | 487 kts | 160° |
| 2026-05-09 13:40 | 40.08339 | 29.28496 | 32489 ft | 489 kts | 160° |
| 2026-05-09 13:41 | 40.05221 | 29.30145 | 32862 ft | 490 kts | 161° |
| 2026-05-09 13:41 | 40.02051 | 29.31811 | 33229 ft | 492 kts | 161° |
| 2026-05-09 13:41 | 39.98865 | 29.33479 | 33627 ft | 492 kts | 160° |
| 2026-05-09 13:41 | 39.95705 | 29.35150 | 34201 ft | 488 kts | 160° |
| 2026-05-09 13:42 | 39.92486 | 29.36537 | 34606 ft | 486 kts | 168° |
| 2026-05-09 13:42 | 39.89171 | 29.37347 | 34857 ft | 485 kts | 176° |
| 2026-05-09 13:42 | 39.85809 | 29.37472 | 35118 ft | 483 kts | 186° |
| 2026-05-09 13:42 | 39.82471 | 29.36981 | 35438 ft | 482 kts | 191° |
| 2026-05-09 13:43 | 39.79176 | 29.36222 | 35779 ft | 481 kts | 194° |
| 2026-05-09 13:43 | 39.75899 | 29.35336 | 36094 ft | 481 kts | 195° |
| 2026-05-09 13:43 | 39.72620 | 29.34402 | 36353 ft | 482 kts | 195° |
| 2026-05-09 13:43 | 39.69337 | 29.33465 | 36581 ft | 484 kts | 195° |
| 2026-05-09 13:44 | 39.67157 | 29.32851 | 36769 ft | 484 kts | 195° |
| 2026-05-09 13:44 | 39.63858 | 29.31947 | 37083 ft | 484 kts | 195° |
| 2026-05-09 13:44 | 39.60562 | 29.31061 | 37399 ft | 484 kts | 195° |
| 2026-05-09 13:44 | 39.56192 | 29.29895 | 37796 ft | 484 kts | 195° |
| 2026-05-09 13:45 | 39.52890 | 29.29019 | 38024 ft | 485 kts | 195° |
| 2026-05-09 13:45 | 39.50657 | 29.28427 | 38057 ft | 485 kts | 195° |
| 2026-05-09 13:45 | 39.42986 | 29.26398 | 38062 ft | 484 kts | 195° |
| 2026-05-09 13:46 | 39.37456 | 29.24939 | 38063 ft | 484 kts | 195° |
| 2026-05-09 13:46 | 39.30895 | 29.23211 | 38072 ft | 485 kts | 196° |
| 2026-05-09 13:47 | 39.24278 | 29.21472 | 38076 ft | 485 kts | 195° |
| 2026-05-09 13:47 | 39.17668 | 29.19739 | 38080 ft | 484 kts | 195° |
| 2026-05-09 13:48 | 39.11061 | 29.18010 | 38081 ft | 485 kts | 196° |
| 2026-05-09 13:48 | 39.04438 | 29.16280 | 38088 ft | 485 kts | 196° |
| 2026-05-09 13:49 | 38.97819 | 29.14554 | 38087 ft | 486 kts | 196° |
| 2026-05-09 13:49 | 38.91198 | 29.12831 | 38089 ft | 485 kts | 196° |
| 2026-05-09 13:50 | 38.84576 | 29.11111 | 38099 ft | 485 kts | 196° |
| 2026-05-09 13:50 | 38.77954 | 29.09398 | 38088 ft | 485 kts | 196° |
| 2026-05-09 13:51 | 38.71332 | 29.07682 | 38096 ft | 485 kts | 196° |
| 2026-05-09 13:51 | 38.64764 | 29.05791 | 38087 ft | 480 kts | 202° |
| 2026-05-09 13:52 | 38.61626 | 29.04377 | 37856 ft | 477 kts | 206° |
| 2026-05-09 13:52 | 38.58535 | 29.02829 | 37562 ft | 477 kts | 207° |
| 2026-05-09 13:52 | 38.55449 | 29.01256 | 37285 ft | 478 kts | 207° |
| 2026-05-09 13:52 | 38.52765 | 28.99884 | 37064 ft | 478 kts | 207° |
| 2026-05-09 13:53 | 38.49682 | 28.98309 | 36724 ft | 476 kts | 206° |
| 2026-05-09 13:53 | 38.46617 | 28.96744 | 36100 ft | 474 kts | 206° |
| 2026-05-09 13:53 | 38.43548 | 28.95177 | 35426 ft | 474 kts | 206° |
| 2026-05-09 13:53 | 38.40488 | 28.93616 | 34693 ft | 474 kts | 206° |
| 2026-05-09 13:54 | 38.37456 | 28.92075 | 33892 ft | 476 kts | 206° |
| 2026-05-09 13:54 | 38.34378 | 28.90508 | 32993 ft | 477 kts | 206° |
| 2026-05-09 13:54 | 38.31296 | 28.88937 | 32152 ft | 477 kts | 206° |
| 2026-05-09 13:54 | 38.28212 | 28.87368 | 31274 ft | 478 kts | 206° |
| 2026-05-09 13:55 | 38.25121 | 28.85796 | 30406 ft | 478 kts | 206° |
| 2026-05-09 13:55 | 38.22022 | 28.84223 | 29413 ft | 479 kts | 206° |
| 2026-05-09 13:55 | 38.18947 | 28.82667 | 28794 ft | 473 kts | 206° |
| 2026-05-09 13:55 | 38.15916 | 28.81134 | 28183 ft | 466 kts | 206° |
| 2026-05-09 13:56 | 38.12919 | 28.79619 | 27549 ft | 461 kts | 206° |
| 2026-05-09 13:56 | 38.09958 | 28.78122 | 26929 ft | 456 kts | 206° |
| 2026-05-09 13:56 | 38.07025 | 28.76643 | 26322 ft | 451 kts | 206° |
| 2026-05-09 13:56 | 38.04120 | 28.75178 | 25698 ft | 446 kts | 206° |
| 2026-05-09 13:57 | 38.01248 | 28.73732 | 25101 ft | 442 kts | 206° |
| 2026-05-09 13:57 | 37.98402 | 28.72298 | 24503 ft | 438 kts | 206° |
| 2026-05-09 13:57 | 37.95580 | 28.70875 | 23908 ft | 435 kts | 206° |
| 2026-05-09 13:57 | 37.92774 | 28.69461 | 23262 ft | 432 kts | 206° |
| 2026-05-09 13:58 | 37.89991 | 28.68061 | 22628 ft | 427 kts | 206° |
| 2026-05-09 13:58 | 37.87252 | 28.66686 | 22027 ft | 422 kts | 206° |
| 2026-05-09 13:58 | 37.84537 | 28.65324 | 21447 ft | 417 kts | 206° |
| 2026-05-09 13:58 | 37.81885 | 28.63995 | 20862 ft | 413 kts | 206° |
| 2026-05-09 13:59 | 37.79231 | 28.62665 | 20270 ft | 409 kts | 206° |
| 2026-05-09 13:59 | 37.76595 | 28.61344 | 19682 ft | 406 kts | 206° |
| 2026-05-09 13:59 | 37.73972 | 28.60030 | 19087 ft | 404 kts | 206° |
| 2026-05-09 13:59 | 37.71370 | 28.58729 | 18487 ft | 401 kts | 206° |
| 2026-05-09 14:00 | 37.68782 | 28.57436 | 17817 ft | 399 kts | 206° |
| 2026-05-09 14:00 | 37.67909 | 28.57001 | 17624 ft | 398 kts | 206° |
| 2026-05-09 14:00 | 37.63657 | 28.54880 | 16616 ft | 392 kts | 206° |
| 2026-05-09 14:00 | 37.61131 | 28.53623 | 16007 ft | 389 kts | 205° |
| 2026-05-09 14:01 | 37.58621 | 28.52382 | 15408 ft | 384 kts | 205° |
| 2026-05-09 14:01 | 37.56193 | 28.51178 | 14818 ft | 364 kts | 205° |
| 2026-05-09 14:01 | 37.53912 | 28.50047 | 14376 ft | 341 kts | 205° |
| 2026-05-09 14:01 | 37.51774 | 28.48984 | 13984 ft | 319 kts | 205° |
| 2026-05-09 14:02 | 37.49772 | 28.47995 | 13546 ft | 300 kts | 205° |
| 2026-05-09 14:02 | 37.47882 | 28.47056 | 13123 ft | 285 kts | 206° |
| 2026-05-09 14:02 | 37.46071 | 28.46152 | 12547 ft | 277 kts | 206° |
| 2026-05-09 14:02 | 37.44294 | 28.45265 | 12050 ft | 273 kts | 206° |
| 2026-05-09 14:03 | 37.42527 | 28.44383 | 11606 ft | 270 kts | 206° |
| 2026-05-09 14:03 | 37.40805 | 28.43530 | 11440 ft | 265 kts | 206° |
| 2026-05-09 14:03 | 37.39090 | 28.42679 | 11321 ft | 264 kts | 206° |
| 2026-05-09 14:03 | 37.37384 | 28.41831 | 11201 ft | 264 kts | 206° |
| 2026-05-09 14:04 | 37.35680 | 28.40986 | 11067 ft | 263 kts | 206° |
| 2026-05-09 14:04 | 37.33975 | 28.40142 | 10955 ft | 263 kts | 206° |
| 2026-05-09 14:04 | 37.32304 | 28.39325 | 10835 ft | 254 kts | 206° |
| 2026-05-09 14:04 | 37.30654 | 28.38513 | 10429 ft | 256 kts | 206° |
| 2026-05-09 14:05 | 37.29003 | 28.37692 | 9795 ft | 261 kts | 206° |
| 2026-05-09 14:05 | 37.27295 | 28.36841 | 9361 ft | 263 kts | 205° |
| 2026-05-09 14:05 | 37.25606 | 28.36007 | 9085 ft | 258 kts | 205° |
| 2026-05-09 14:05 | 37.23943 | 28.35187 | 8729 ft | 257 kts | 205° |
| 2026-05-09 14:06 | 37.22351 | 28.34200 | 8315 ft | 254 kts | 217° |
| 2026-05-09 14:06 | 37.21124 | 28.32662 | 7983 ft | 248 kts | 239° |
| 2026-05-09 14:06 | 37.20324 | 28.30778 | 7818 ft | 240 kts | 246° |
| 2026-05-09 14:06 | 37.19639 | 28.28910 | 7674 ft | 231 kts | 247° |
| 2026-05-09 14:07 | 37.18988 | 28.27108 | 7567 ft | 223 kts | 247° |
| 2026-05-09 14:07 | 37.18358 | 28.25369 | 7425 ft | 215 kts | 247° |
| 2026-05-09 14:07 | 37.17739 | 28.23663 | 7310 ft | 215 kts | 247° |
| 2026-05-09 14:07 | 37.17122 | 28.21967 | 7185 ft | 214 kts | 247° |
| 2026-05-09 14:08 | 37.16500 | 28.20263 | 7066 ft | 216 kts | 246° |
| 2026-05-09 14:08 | 37.15878 | 28.18562 | 6898 ft | 213 kts | 247° |
| 2026-05-09 14:08 | 37.15260 | 28.16878 | 6645 ft | 213 kts | 246° |
| 2026-05-09 14:08 | 37.14642 | 28.15185 | 6411 ft | 212 kts | 246° |
| 2026-05-09 14:09 | 37.14144 | 28.13442 | 6191 ft | 213 kts | 261° |
| 2026-05-09 14:09 | 37.14221 | 28.11632 | 5955 ft | 212 kts | 283° |
| 2026-05-09 14:09 | 37.14627 | 28.09854 | 5701 ft | 213 kts | 287° |
| 2026-05-09 14:09 | 37.15071 | 28.08096 | 5530 ft | 212 kts | 286° |
| 2026-05-09 14:10 | 37.15956 | 28.04559 | 5489 ft | 212 kts | 286° |
| 2026-05-09 14:10 | 37.16388 | 28.02797 | 5508 ft | 211 kts | 285° |
| 2026-05-09 14:10 | 37.16817 | 28.01031 | 5487 ft | 211 kts | 286° |
| 2026-05-09 14:11 | 37.17247 | 27.99263 | 5471 ft | 212 kts | 286° |
| 2026-05-09 14:11 | 37.17670 | 27.97538 | 5404 ft | 201 kts | 285° |
| 2026-05-09 14:11 | 37.18066 | 27.95888 | 5268 ft | 194 kts | 285° |
| 2026-05-09 14:11 | 37.18454 | 27.94275 | 5171 ft | 193 kts | 287° |
| 2026-05-09 14:12 | 37.18850 | 27.92669 | 5100 ft | 192 kts | 287° |
| 2026-05-09 14:12 | 37.19261 | 27.91070 | 4882 ft | 194 kts | 287° |
| 2026-05-09 14:12 | 37.19651 | 27.89436 | 4507 ft | 197 kts | 286° |
| 2026-05-09 14:12 | 37.20044 | 27.87772 | 4117 ft | 201 kts | 285° |
| 2026-05-09 14:13 | 37.20450 | 27.86074 | 3734 ft | 205 kts | 286° |
| 2026-05-09 14:14 | 37.23089 | 27.75002 | 1464 ft | 163 kts | 285° |
| 2026-05-09 14:15 | 37.23407 | 27.73669 | 1198 ft | 156 kts | 284° |
| 2026-05-09 14:15 | 37.23704 | 27.72424 | 956 ft | 143 kts | 287° |
| 2026-05-09 14:15 | 37.23983 | 27.71253 | 720 ft | 137 kts | 285° |
| 2026-05-09 14:15 | 37.24249 | 27.70138 | 484 ft | 130 kts | 283° |
| 2026-05-09 14:16 | 37.24502 | 27.69070 | 270 ft | 126 kts | 284° |
| 2026-05-09 14:16 | 37.24754 | 27.68017 | 95 ft | 127 kts | 283° |
| 2026-05-09 14:16 | 37.25004 | 27.66975 | 28 ft | 119 kts | 283° |
| 2026-05-09 14:16 | 37.25209 | 27.66113 | 25 ft | 86 kts | 287° |
| 2026-05-09 14:17 | 37.25359 | 27.65492 | 21 ft | 63 kts | 287° |
| 2026-05-09 14:17 | 37.25441 | 27.65148 | 25 ft | 26 kts | 287° |
| 2026-05-09 14:17 | 37.25469 | 27.64974 | 25 ft | 11 kts | 263° |
| 2026-05-09 14:17 | 37.25421 | 27.64913 | 24 ft | 1 kts | 202° |
| 2026-05-09 14:19 | 37.25421 | 27.64912 | 24 ft | 0 kts | 202° |
| 2026-05-09 14:19 | 37.25401 | 27.64902 | 26 ft | 6 kts | 202° |
| 2026-05-09 14:20 | 37.25350 | 27.64900 | 24 ft | 9 kts | 152° |
| 2026-05-09 14:20 | 37.25302 | 27.64986 | 22 ft | 16 kts | 111° |
| 2026-05-09 14:20 | 37.25261 | 27.65149 | 24 ft | 24 kts | 107° |
| 2026-05-09 14:21 | 37.25190 | 27.65444 | 24 ft | 17 kts | 106° |
| 2026-05-09 14:21 | 37.25150 | 27.65616 | 25 ft | 24 kts | 106° |
| 2026-05-09 14:21 | 37.25106 | 27.65804 | 26 ft | 16 kts | 106° |
| 2026-05-09 14:21 | 37.25067 | 27.65967 | 26 ft | 23 kts | 106° |
| 2026-05-09 14:22 | 37.25019 | 27.66173 | 28 ft | 24 kts | 106° |
| 2026-05-09 14:22 | 37.24978 | 27.66348 | 27 ft | 20 kts | 107° |
| 2026-05-09 14:22 | 37.24934 | 27.66534 | 24 ft | 24 kts | 107° |
| 2026-05-09 14:22 | 37.24894 | 27.66707 | 28 ft | 21 kts | 106° |
| 2026-05-09 14:23 | 37.24852 | 27.66873 | 29 ft | 16 kts | 117° |
| 2026-05-09 14:23 | 37.24775 | 27.66958 | 26 ft | 10 kts | 141° |
| 2026-05-09 14:23 | 37.24710 | 27.66974 | 27 ft | 11 kts | 188° |
| 2026-05-09 14:23 | 37.24660 | 27.66995 | 27 ft | 7 kts | 123° |
| 2026-05-09 14:24 | 37.24640 | 27.67059 | 28 ft | 9 kts | 108° |
| 2026-05-09 14:24 | 37.24618 | 27.67131 | 28 ft | 3 kts | 128° |
| 2026-05-09 14:24 | 37.24609 | 27.67132 | 28 ft | 1 kts | 176° |
| 2026-05-09 14:24 | 37.24603 | 27.67128 | 28 ft | 1 kts | 200° |
| 2026-05-09 14:25 | 37.24600 | 27.67126 | 28 ft | 0 kts | 205° |
| 2026-05-09 14:25 | 37.24594 | 27.67122 | 28 ft | 2 kts | 206° |
| 2026-05-09 14:25 | 37.24574 | 27.67111 | 28 ft | 4 kts | 201° |
| 2026-05-09 14:25 | 37.24541 | 27.67097 | 28 ft | 0 kts | 197° |